Time;durP1;ratioP1;P1;durP2;ratioP2;P2;SDS_P1;SDS_P2;PMS_P1;PMS_P2;Temp;Humidity;BMP_temperature;BMP_pressure;BME280_temperature;BME280_humidity;BME280_pressure;Samples;Min_cycle;Max_cycle;Signal;HPM_P1;HPM_P2
2022/12/04 00:02:21;;;;;;;2.08;0.57;;;26.20;99.90;;;;;;5014163;28;20191;-80
2022/12/04 00:04:52;;;;;;;4.60;0.60;;;26.20;99.90;;;;;;5031732;28;20297;-83
2022/12/04 00:07:25;;;;;;;2.70;0.60;;;25.80;99.90;;;;;;5030466;28;20195;-79
2022/12/04 00:09:56;;;;;;;4.45;0.60;;;25.50;99.90;;;;;;5030561;28;20192;-80
2022/12/04 00:12:26;;;;;;;3.35;0.45;;;25.30;99.90;;;;;;5016634;28;20195;-80
2022/12/04 00:14:57;;;;;;;1.75;0.40;;;25.10;99.90;;;;;;5032006;28;20190;-80
2022/12/04 00:17:28;;;;;;;1.42;0.40;;;24.90;99.90;;;;;;5023783;28;20272;-79
2022/12/04 00:19:59;;;;;;;2.55;0.50;;;24.80;99.90;;;;;;5020325;28;20207;-79
2022/12/04 00:22:31;;;;;;;2.22;0.50;;;25.20;99.90;;;;;;5014259;28;20627;-79
2022/12/04 00:25:02;;;;;;;1.75;0.40;;;25.60;99.90;;;;;;5014165;28;20211;-79
2022/12/04 00:27:33;;;;;;;2.33;0.40;;;25.70;99.90;;;;;;5014601;28;20191;-78
2022/12/04 00:30:04;;;;;;;2.22;0.32;;;25.70;99.90;;;;;;5011704;28;20190;-80
2022/12/04 00:32:35;;;;;;;0.77;0.40;;;25.60;99.90;;;;;;5012795;28;20194;-80
2022/12/04 00:35:05;;;;;;;1.63;0.40;;;25.70;99.90;;;;;;5013797;28;20188;-79
2022/12/04 00:37:38;;;;;;;1.15;0.50;;;26.00;99.90;;;;;;5021053;28;20222;-82
2022/12/04 00:40:10;;;;;;;3.50;0.52;;;26.20;99.90;;;;;;5018881;28;20210;-79
2022/12/04 00:42:41;;;;;;;1.83;0.50;;;26.30;99.90;;;;;;5015522;28;20191;-81
2022/12/04 00:45:12;;;;;;;1.75;0.43;;;26.50;99.90;;;;;;5021203;28;20670;-78
2022/12/04 00:47:43;;;;;;;3.50;0.60;;;26.80;99.90;;;;;;5013798;28;20187;-80
2022/12/04 00:50:15;;;;;;;5.55;0.80;;;26.50;99.90;;;;;;5013927;28;20190;-83
2022/12/04 00:52:48;;;;;;;1.95;0.47;;;26.50;99.90;;;;;;5024508;28;20250;-79
2022/12/04 00:55:19;;;;;;;2.55;0.63;;;26.50;99.90;;;;;;5029110;28;20212;-79
2022/12/04 00:57:50;;;;;;;1.98;0.55;;;26.60;99.90;;;;;;5017897;28;20667;-77
2022/12/04 01:00:21;;;;;;;3.10;0.50;;;26.70;99.90;;;;;;5018183;28;20199;-78
2022/12/04 01:02:52;;;;;;;2.05;0.70;;;27.00;99.90;;;;;;5009500;28;20244;-79
2022/12/04 01:05:23;;;;;;;1.52;0.50;;;27.10;99.90;;;;;;5011117;28;20305;-78
2022/12/04 01:07:56;;;;;;;2.33;0.52;;;26.90;99.90;;;;;;5013826;28;20191;-78
2022/12/04 01:10:26;;;;;;;4.25;0.60;;;26.50;99.90;;;;;;5009486;28;20298;-80
2022/12/04 01:12:57;;;;;;;2.88;0.65;;;26.40;99.90;;;;;;5011474;28;20210;-78
2022/12/04 01:15:28;;;;;;;1.50;0.60;;;26.50;99.90;;;;;;5015698;28;20198;-79
2022/12/04 01:17:59;;;;;;;4.57;0.73;;;26.50;99.90;;;;;;5016835;28;20191;-77
2022/12/04 01:20:30;;;;;;;2.05;0.70;;;26.50;99.90;;;;;;5009590;28;20701;-79
2022/12/04 01:23:02;;;;;;;3.05;0.70;;;25.80;99.90;;;;;;5025744;28;20194;-79
2022/12/04 01:25:33;;;;;;;1.83;0.63;;;25.40;99.90;;;;;;5011713;28;20225;-78
2022/12/04 01:28:04;;;;;;;1.35;0.70;;;25.40;99.90;;;;;;5013315;28;20386;-78
2022/12/04 01:30:35;;;;;;;2.38;0.70;;;25.70;99.90;;;;;;5015062;28;20201;-78
2022/12/04 01:33:06;;;;;;;3.83;0.90;;;25.60;99.90;;;;;;5012427;28;20236;-78
2022/12/04 01:35:36;;;;;;;2.80;0.70;;;25.90;99.90;;;;;;5019512;28;20248;-78
2022/12/04 01:38:09;;;;;;;2.17;0.50;;;26.10;99.90;;;;;;5017707;28;20233;-77
2022/12/04 01:40:44;;;;;;;2.10;0.70;;;26.10;99.90;;;;;;5017676;28;20206;-80
2022/12/04 01:43:16;;;;;;;2.80;0.63;;;26.40;99.90;;;;;;5022505;28;20201;-80
2022/12/04 01:45:48;;;;;;;2.03;0.70;;;26.40;99.90;;;;;;5011950;28;20210;-78
2022/12/04 01:48:25;;;;;;;1.00;0.50;;;26.60;99.90;;;;;;5017882;28;20183;-80
2022/12/04 01:50:59;;;;;;;3.28;0.82;;;26.90;99.90;;;;;;5013595;28;20195;-78
2022/12/04 01:53:33;;;;;;;2.38;0.80;;;27.10;99.90;;;;;;5020779;28;20653;-76
2022/12/04 01:56:05;;;;;;;1.48;0.60;;;27.10;99.90;;;;;;5011844;28;20230;-79
2022/12/04 01:58:39;;;;;;;2.42;0.52;;;27.10;99.90;;;;;;5019836;28;20273;-80
2022/12/04 02:01:11;;;;;;;1.83;0.52;;;26.60;99.90;;;;;;5020254;28;20642;-77
2022/12/04 02:03:42;;;;;;;6.68;0.80;;;26.50;99.90;;;;;;5014959;28;20658;-77
2022/12/04 02:06:13;;;;;;;1.35;0.40;;;26.80;99.90;;;;;;5014460;28;20226;-82
2022/12/04 02:08:46;;;;;;;3.45;0.65;;;26.70;99.90;;;;;;5012592;28;20195;-83
2022/12/04 02:11:27;;;;;;;4.10;0.60;;;26.50;99.90;;;;;;5016011;28;20252;-81
2022/12/04 02:14:09;;;;;;;3.40;0.60;;;26.50;99.90;;;;;;5015916;28;20594;-80
2022/12/04 02:16:48;;;;;;;1.42;0.65;;;26.60;99.90;;;;;;5012874;28;20253;-80
2022/12/04 02:19:44;;;;;;;2.35;0.50;;;26.60;99.90;;;;;;5011606;28;20191;-80
2022/12/04 02:22:28;;;;;;;2.53;0.45;;;26.50;99.90;;;;;;5022792;28;20651;-80
2022/12/04 02:25:09;;;;;;;2.13;0.60;;;26.30;99.90;;;;;;5022291;28;20579;-77
2022/12/04 02:28:06;;;;;;;5.57;0.85;;;26.30;99.90;;;;;;5018694;28;20210;-83
2022/12/04 02:30:43;;;;;;;3.88;0.40;;;26.20;99.90;;;;;;5019854;28;20657;-81
2022/12/04 02:33:22;;;;;;;1.98;0.50;;;25.90;99.90;;;;;;5017846;28;20198;-81
2022/12/04 02:36:00;;;;;;;2.05;0.55;;;25.90;99.90;;;;;;5021639;28;20217;-82
2022/12/04 02:38:37;;;;;;;1.77;0.43;;;26.00;99.90;;;;;;5027309;28;20232;-86
2022/12/04 02:41:12;;;;;;;3.15;0.50;;;25.90;99.90;;;;;;5023416;28;20216;-81
2022/12/04 02:43:48;;;;;;;4.18;0.50;;;25.70;99.90;;;;;;5018272;28;20733;-79
2022/12/04 02:46:25;;;;;;;1.13;0.35;;;25.70;99.90;;;;;;5018937;28;20727;-81
2022/12/04 02:48:59;;;;;;;2.38;0.40;;;25.70;99.90;;;;;;5019197;28;20202;-81
2022/12/04 02:51:33;;;;;;;1.55;0.40;;;25.80;99.90;;;;;;5020599;28;20229;-81
2022/12/04 02:54:10;;;;;;;1.77;0.45;;;25.80;99.90;;;;;;5018500;28;20824;-79
2022/12/04 02:56:45;;;;;;;2.75;0.50;;;25.70;99.90;;;;;;5020873;28;20194;-80
2022/12/04 02:59:21;;;;;;;1.42;0.50;;;25.80;99.90;;;;;;5020083;28;20209;-80
2022/12/04 03:01:55;;;;;;;0.80;0.43;;;25.70;99.90;;;;;;5017227;28;20187;-79
2022/12/04 03:04:29;;;;;;;1.67;0.40;;;25.70;99.90;;;;;;5034306;28;20198;-81
2022/12/04 03:07:04;;;;;;;3.35;0.60;;;25.80;99.90;;;;;;5026962;28;20186;-78
2022/12/04 03:09:39;;;;;;;1.88;0.50;;;25.90;99.90;;;;;;5024988;28;20187;-78
2022/12/04 03:12:14;;;;;;;1.50;0.50;;;25.90;99.90;;;;;;5027626;28;20194;-79
2022/12/04 03:14:51;;;;;;;1.40;0.30;;;25.60;99.90;;;;;;5026093;28;20556;-84
2022/12/04 03:17:27;;;;;;;1.35;0.52;;;25.40;99.90;;;;;;5028035;28;20182;-81
2022/12/04 03:20:03;;;;;;;3.10;0.50;;;25.50;99.90;;;;;;5024458;28;20194;-84
2022/12/04 03:22:35;;;;;;;2.83;0.52;;;25.50;99.90;;;;;;5015519;28;20187;-82
2022/12/04 03:25:09;;;;;;;3.47;0.43;;;25.50;99.90;;;;;;5028027;28;20210;-81
2022/12/04 03:27:50;;;;;;;1.05;0.50;;;25.60;99.90;;;;;;5022300;28;20209;-77
2022/12/04 03:30:24;;;;;;;1.33;0.32;;;25.60;99.90;;;;;;5017003;28;20191;-79
2022/12/04 03:33:00;;;;;;;3.20;0.40;;;25.50;99.90;;;;;;5026135;28;20269;-77
2022/12/04 03:35:41;;;;;;;0.65;0.30;;;25.60;99.90;;;;;;5021966;28;20194;-80
2022/12/04 03:38:18;;;;;;;0.73;0.50;;;25.60;99.90;;;;;;5017471;28;20260;-79
2022/12/04 03:40:55;;;;;;;4.00;0.52;;;25.70;99.90;;;;;;5011178;28;20606;-80
2022/12/04 03:43:31;;;;;;;1.75;0.30;;;25.40;99.90;;;;;;5022251;28;20194;-83
2022/12/04 03:46:09;;;;;;;0.60;0.35;;;25.10;99.90;;;;;;5028674;28;20671;-80
2022/12/04 03:48:46;;;;;;;0.73;0.30;;;25.00;99.90;;;;;;5019551;28;20195;-81
2022/12/04 03:51:27;;;;;;;1.88;0.20;;;24.90;99.90;;;;;;5022466;28;20194;-81
2022/12/04 03:54:03;;;;;;;1.05;0.20;;;24.80;99.90;;;;;;5023027;28;20611;-79
2022/12/04 03:56:37;;;;;;;1.55;0.52;;;24.80;99.90;;;;;;5026313;28;20190;-78
2022/12/04 03:59:12;;;;;;;2.15;0.40;;;25.10;99.90;;;;;;5026005;28;20187;-79
2022/12/04 04:01:48;;;;;;;1.63;0.40;;;25.00;99.90;;;;;;5025111;28;20583;-84
2022/12/04 04:04:25;;;;;;;2.17;0.50;;;24.90;99.90;;;;;;5029289;28;20208;-79
2022/12/04 04:07:01;;;;;;;1.52;0.30;;;24.80;99.90;;;;;;5020942;28;20217;-82
2022/12/04 04:09:37;;;;;;;2.63;0.47;;;24.70;99.90;;;;;;5015694;28;20200;-80
2022/12/04 04:12:11;;;;;;;2.67;0.40;;;24.70;99.90;;;;;;5014173;28;20221;-79
2022/12/04 04:26:16;;;;;;;1.05;0.40;;;24.70;99.90;;;;;;5023829;28;20602;-77
2022/12/04 04:28:46;;;;;;;0.95;0.30;;;24.60;99.90;;;;;;5033677;28;20190;-82
2022/12/04 04:31:26;;;;;;;0.82;0.32;;;24.60;99.90;;;;;;5015583;28;20197;-79
2022/12/04 04:34:06;;;;;;;2.70;0.22;;;24.70;99.90;;;;;;5020921;28;20191;-77
2022/12/04 04:36:42;;;;;;;2.75;0.40;;;24.50;99.90;;;;;;5019838;28;20197;-78
2022/12/04 04:39:18;;;;;;;3.53;0.40;;;24.50;99.90;;;;;;5023684;28;20313;-78
2022/12/04 04:41:54;;;;;;;1.45;0.40;;;24.30;99.90;;;;;;5020571;28;20201;-78
2022/12/04 04:44:31;;;;;;;2.83;0.60;;;24.20;99.90;;;;;;5025573;28;20186;-83
2022/12/04 04:47:05;;;;;;;0.80;0.30;;;24.30;99.90;;;;;;5017447;28;20689;-84
2022/12/04 04:49:41;;;;;;;1.83;0.40;;;24.40;99.90;;;;;;5019298;28;20552;-78
2022/12/04 04:52:12;;;;;;;2.97;0.60;;;24.40;99.90;;;;;;5025401;28;20183;-77
2022/12/04 04:54:43;;;;;;;1.60;0.40;;;24.30;99.90;;;;;;5025852;28;20554;-80
2022/12/04 04:57:14;;;;;;;0.88;0.40;;;24.20;99.90;;;;;;5024856;28;20616;-79
2022/12/04 04:59:45;;;;;;;0.32;0.30;;;24.20;99.90;;;;;;5024959;28;20197;-79
2022/12/04 05:02:15;;;;;;;2.25;0.50;;;24.30;99.90;;;;;;5020132;28;20221;-78
2022/12/04 05:04:48;;;;;;;1.40;0.50;;;24.30;99.90;;;;;;5022769;28;20642;-83
2022/12/04 05:07:19;;;;;;;2.20;0.40;;;24.30;99.90;;;;;;5018541;28;20559;-79
2022/12/04 05:09:50;;;;;;;1.42;0.47;;;24.20;99.90;;;;;;5013246;28;20194;-80
2022/12/04 05:12:20;;;;;;;3.00;0.50;;;24.10;99.90;;;;;;5021995;28;20230;-80
2022/12/04 05:14:52;;;;;;;2.15;0.40;;;24.10;99.90;;;;;;5026201;28;20626;-80
2022/12/04 05:17:23;;;;;;;3.83;0.60;;;24.10;99.90;;;;;;5018497;28;20203;-77
2022/12/04 05:19:54;;;;;;;1.88;0.50;;;24.20;99.90;;;;;;5024831;28;20183;-77
2022/12/04 05:22:26;;;;;;;1.00;0.43;;;24.20;99.90;;;;;;5023491;28;20187;-79
2022/12/04 05:24:57;;;;;;;1.70;0.43;;;24.10;99.90;;;;;;5017564;28;20191;-82
2022/12/04 05:27:29;;;;;;;2.20;0.55;;;24.00;99.90;;;;;;5019041;28;20217;-81
2022/12/04 05:30:00;;;;;;;3.10;0.60;;;23.90;99.90;;;;;;5025048;28;20193;-81
2022/12/04 05:32:32;;;;;;;1.58;0.38;;;24.00;99.90;;;;;;5017237;28;20214;-78
2022/12/04 05:35:04;;;;;;;3.00;0.40;;;23.90;99.90;;;;;;5021118;28;20190;-82
2022/12/04 05:37:39;;;;;;;3.72;0.40;;;23.90;99.90;;;;;;5024235;28;20230;-78
2022/12/04 05:40:11;;;;;;;5.05;0.65;;;24.00;99.90;;;;;;5014270;28;20570;-82
2022/12/04 05:42:42;;;;;;;0.85;0.32;;;24.00;99.90;;;;;;5026602;28;20269;-80
2022/12/04 05:45:13;;;;;;;2.92;0.32;;;24.10;99.90;;;;;;5022061;28;20271;-82
2022/12/04 05:47:44;;;;;;;1.48;0.40;;;24.00;99.90;;;;;;5027610;28;20192;-80
2022/12/04 05:50:17;;;;;;;3.28;0.60;;;23.90;99.90;;;;;;5012163;28;20276;-77
2022/12/04 05:52:48;;;;;;;3.13;0.52;;;23.80;99.90;;;;;;5022207;28;20186;-77
2022/12/04 05:55:19;;;;;;;2.20;0.30;;;23.80;99.90;;;;;;5025021;28;20256;-80
2022/12/04 05:57:49;;;;;;;1.45;0.40;;;23.80;99.90;;;;;;5028464;28;20190;-80
2022/12/04 06:00:21;;;;;;;2.50;0.52;;;23.70;99.90;;;;;;5021249;28;20294;-80
2022/12/04 06:02:51;;;;;;;1.55;0.30;;;23.70;99.90;;;;;;5018623;28;20187;-81
2022/12/04 06:05:24;;;;;;;2.35;0.50;;;23.60;99.90;;;;;;5016180;28;20191;-79
2022/12/04 06:07:55;;;;;;;2.60;0.55;;;23.60;99.90;;;;;;5028091;28;20187;-82
2022/12/04 06:10:26;;;;;;;2.38;0.32;;;23.60;99.90;;;;;;5019547;28;20182;-79
2022/12/04 06:12:57;;;;;;;2.13;0.60;;;23.60;99.90;;;;;;5025469;28;20191;-78
2022/12/04 06:15:27;;;;;;;2.65;0.50;;;23.70;99.90;;;;;;5020143;28;20216;-76
2022/12/04 06:17:58;;;;;;;2.75;0.40;;;23.60;99.90;;;;;;5023558;28;20265;-77
2022/12/04 06:20:33;;;;;;;2.20;0.60;;;23.60;99.90;;;;;;5030977;28;20300;-78
2022/12/04 06:23:03;;;;;;;1.40;0.35;;;23.50;99.90;;;;;;5025910;28;20182;-77
2022/12/04 06:25:35;;;;;;;1.38;0.40;;;23.40;99.90;;;;;;5025634;28;20294;-80
2022/12/04 06:28:06;;;;;;;1.88;0.30;;;23.20;99.90;;;;;;5019142;28;20198;-77
2022/12/04 06:30:37;;;;;;;2.33;0.50;;;23.10;99.90;;;;;;5017384;28;20206;-82
2022/12/04 06:33:08;;;;;;;1.90;0.40;;;23.10;99.90;;;;;;5020511;28;20538;-79
2022/12/04 06:35:40;;;;;;;2.25;0.30;;;23.00;99.90;;;;;;5025108;28;20273;-80
2022/12/04 06:38:12;;;;;;;1.80;0.45;;;23.00;99.90;;;;;;5015586;28;20569;-78
2022/12/04 06:40:43;;;;;;;2.95;0.30;;;23.10;99.90;;;;;;5019456;28;20653;-81
2022/12/04 06:43:14;;;;;;;1.48;0.40;;;23.20;99.90;;;;;;5024035;28;20559;-79
2022/12/04 06:45:44;;;;;;;3.08;0.40;;;23.20;99.90;;;;;;5024798;28;20689;-77
2022/12/04 06:48:15;;;;;;;2.15;0.50;;;23.10;99.90;;;;;;5024229;28;20194;-79
2022/12/04 06:50:48;;;;;;;1.38;0.40;;;23.00;99.90;;;;;;5021203;28;20201;-79
2022/12/04 06:53:18;;;;;;;3.22;0.60;;;22.90;99.90;;;;;;5023175;28;20195;-79
2022/12/04 06:55:51;;;;;;;2.22;0.57;;;22.90;99.90;;;;;;5022528;28;20202;-79
2022/12/04 06:58:22;;;;;;;4.28;0.57;;;22.90;99.90;;;;;;5028008;28;20210;-80
2022/12/04 07:00:53;;;;;;;1.65;0.50;;;22.90;99.90;;;;;;5025729;28;20654;-78
2022/12/04 07:03:24;;;;;;;1.60;0.50;;;22.80;99.90;;;;;;5011964;28;20206;-77
2022/12/04 07:05:57;;;;;;;3.20;0.35;;;22.70;99.90;;;;;;5013367;28;20215;-76
2022/12/04 07:08:28;;;;;;;1.52;0.60;;;22.60;99.90;;;;;;5008882;28;20203;-79
2022/12/04 07:11:03;;;;;;;3.20;0.60;;;22.60;99.90;;;;;;5013745;28;20282;-79
2022/12/04 07:13:34;;;;;;;2.78;0.70;;;22.60;99.90;;;;;;5018812;28;20642;-76
2022/12/04 07:16:05;;;;;;;4.40;0.68;;;22.60;99.90;;;;;;5019452;28;20773;-78
2022/12/04 07:18:37;;;;;;;2.70;0.60;;;22.60;99.90;;;;;;5017761;28;20213;-79
2022/12/04 07:21:11;;;;;;;3.67;0.50;;;22.70;99.90;;;;;;5018910;28;20245;-77
2022/12/04 07:23:42;;;;;;;4.05;0.70;;;22.60;99.90;;;;;;5023661;28;20620;-82
2022/12/04 07:26:15;;;;;;;3.53;0.80;;;22.60;99.90;;;;;;5027078;28;20207;-82
2022/12/04 07:28:47;;;;;;;3.03;0.93;;;22.60;99.90;;;;;;5015249;28;20199;-77
2022/12/04 07:31:19;;;;;;;1.30;0.70;;;22.60;99.90;;;;;;5017604;28;20256;-79
2022/12/04 07:33:52;;;;;;;3.25;0.80;;;22.50;99.90;;;;;;5018068;28;20201;-78
2022/12/04 07:36:25;;;;;;;2.45;0.70;;;22.50;99.90;;;;;;5020816;28;20595;-78
2022/12/04 07:38:57;;;;;;;3.72;1.10;;;22.50;99.90;;;;;;5009007;28;20697;-78
2022/12/04 07:41:29;;;;;;;3.30;0.80;;;22.40;99.90;;;;;;5010659;28;20199;-77
2022/12/04 07:43:59;;;;;;;4.18;0.75;;;22.40;99.90;;;;;;5004679;28;20250;-77
2022/12/04 07:46:30;;;;;;;4.88;0.70;;;22.40;99.90;;;;;;5013967;28;20310;-78
2022/12/04 07:49:02;;;;;;;4.43;0.80;;;22.40;99.90;;;;;;5014368;28;20647;-76
2022/12/04 07:51:34;;;;;;;1.70;0.50;;;22.50;99.90;;;;;;5018243;28;20194;-77
2022/12/04 07:54:05;;;;;;;3.97;1.00;;;22.50;99.90;;;;;;5022682;28;20226;-82
2022/12/04 07:56:36;;;;;;;3.60;1.00;;;22.40;99.90;;;;;;5019049;28;20199;-78
2022/12/04 07:59:07;;;;;;;4.70;1.10;;;22.40;99.90;;;;;;5006505;28;20194;-76
2022/12/04 08:01:37;;;;;;;3.25;0.77;;;22.40;99.90;;;;;;5006693;28;20219;-86
2022/12/04 08:04:08;;;;;;;4.38;0.70;;;22.20;99.90;;;;;;5010548;28;20201;-84
2022/12/04 08:06:42;;;;;;;1.80;0.77;;;22.10;99.90;;;;;;5009615;28;20211;-82
2022/12/04 08:09:13;;;;;;;4.15;1.50;;;22.10;99.90;;;;;;5009402;28;20203;-84
2022/12/04 08:11:43;;;;;;;3.17;0.80;;;22.00;99.90;;;;;;5012906;28;20224;-77
2022/12/04 08:14:17;;;;;;;2.15;0.70;;;22.00;99.90;;;;;;5011928;28;20194;-86
2022/12/04 08:16:50;;;;;;;2.17;0.90;;;21.90;99.90;;;;;;5012025;28;20667;-80
2022/12/04 08:19:21;;;;;;;2.20;0.80;;;21.80;99.90;;;;;;5009499;28;20662;-84
2022/12/04 08:21:55;;;;;;;3.83;0.80;;;21.80;99.90;;;;;;5012402;28;20306;-86
2022/12/04 08:24:25;;;;;;;3.15;0.95;;;21.70;99.90;;;;;;5010530;28;20205;-80
2022/12/04 08:26:59;;;;;;;3.35;1.00;;;21.60;99.90;;;;;;5007658;28;20219;-87
2022/12/04 08:29:30;;;;;;;2.85;0.88;;;21.50;99.90;;;;;;5009990;28;20286;-76
2022/12/04 08:32:01;;;;;;;6.00;1.00;;;21.30;99.90;;;;;;5009460;28;20209;-82
2022/12/04 08:34:32;;;;;;;2.85;0.77;;;21.30;99.90;;;;;;5008889;28;20199;-77
2022/12/04 08:37:05;;;;;;;3.03;0.90;;;21.10;99.90;;;;;;5005935;28;20199;-78
2022/12/04 08:39:36;;;;;;;4.70;1.30;;;21.00;99.90;;;;;;5010779;28;20201;-81
2022/12/04 08:42:07;;;;;;;4.68;1.25;;;21.00;99.90;;;;;;5009027;28;20198;-82
2022/12/04 08:44:38;;;;;;;3.60;1.05;;;20.90;99.90;;;;;;5012185;28;20709;-82
2022/12/04 08:47:08;;;;;;;1.63;0.90;;;20.90;99.90;;;;;;5012506;28;20305;-78
2022/12/04 08:49:39;;;;;;;3.63;1.00;;;20.80;99.90;;;;;;5014716;28;20230;-78
2022/12/04 08:52:12;;;;;;;4.95;1.02;;;20.80;99.90;;;;;;5017943;28;20190;-78
2022/12/04 08:54:43;;;;;;;2.40;0.90;;;20.80;99.90;;;;;;5028109;28;20234;-81
2022/12/04 08:57:14;;;;;;;2.45;0.60;;;20.70;99.90;;;;;;5020359;28;20200;-79
2022/12/04 08:59:45;;;;;;;3.20;0.85;;;20.70;99.90;;;;;;5019185;28;20202;-80
2022/12/04 09:02:16;;;;;;;2.92;1.20;;;20.70;99.90;;;;;;5016639;28;20590;-81
2022/12/04 09:04:46;;;;;;;2.38;1.20;;;20.60;99.90;;;;;;5016882;28;20199;-77
2022/12/04 09:07:20;;;;;;;3.58;1.30;;;20.60;99.90;;;;;;5018032;28;20225;-85
2022/12/04 09:09:50;;;;;;;3.05;0.93;;;20.60;99.90;;;;;;5017349;28;20288;-77
2022/12/04 09:12:21;;;;;;;4.63;1.27;;;20.50;99.90;;;;;;5012614;28;20199;-80
2022/12/04 09:14:55;;;;;;;5.95;1.00;;;20.50;99.90;;;;;;5016380;28;20202;-77
2022/12/04 09:17:26;;;;;;;2.35;1.10;;;20.50;99.90;;;;;;5021224;28;20282;-77
2022/12/04 09:19:57;;;;;;;6.55;1.00;;;20.50;99.90;;;;;;5012687;28;20270;-78
2022/12/04 09:22:29;;;;;;;5.00;0.90;;;20.40;99.90;;;;;;5015905;28;20202;-80
2022/12/04 09:25:00;;;;;;;4.65;1.00;;;20.40;99.90;;;;;;5009781;28;20195;-83
2022/12/04 09:27:31;;;;;;;3.00;0.75;;;20.40;99.90;;;;;;5020971;28;20217;-81
2022/12/04 09:30:02;;;;;;;4.13;0.80;;;20.40;99.90;;;;;;5015098;28;20199;-82
2022/12/04 09:32:33;;;;;;;3.97;1.20;;;20.40;99.90;;;;;;5018850;28;20716;-75
2022/12/04 09:35:04;;;;;;;6.28;1.35;;;20.40;99.90;;;;;;5015937;28;20241;-76
2022/12/04 09:37:38;;;;;;;5.32;1.10;;;20.30;99.90;;;;;;5010865;28;20277;-77
2022/12/04 09:40:15;;;;;;;5.38;1.30;;;20.30;99.90;;;;;;5010129;28;20205;-76
2022/12/04 09:42:49;;;;;;;5.13;0.90;;;20.30;99.90;;;;;;5030529;28;20208;-78
2022/12/04 09:45:22;;;;;;;3.45;1.02;;;20.30;99.90;;;;;;5022272;28;20565;-78
2022/12/04 09:47:55;;;;;;;3.22;1.10;;;20.30;99.90;;;;;;5022330;28;20226;-77
2022/12/04 09:50:28;;;;;;;2.47;0.90;;;20.30;99.90;;;;;;5008838;28;20547;-76
2022/12/04 09:53:05;;;;;;;6.03;1.15;;;20.20;99.90;;;;;;5018177;28;20186;-76
2022/12/04 09:55:38;;;;;;;3.00;1.10;;;20.20;99.90;;;;;;5012255;28;20668;-76
2022/12/04 09:58:14;;;;;;;2.35;0.90;;;20.20;99.90;;;;;;5016830;28;20226;-78
2022/12/04 10:00:47;;;;;;;5.93;1.35;;;20.20;99.90;;;;;;5018539;28;20292;-76
2022/12/04 10:03:21;;;;;;;6.18;1.58;;;20.20;99.90;;;;;;5016597;28;20256;-77
2022/12/04 10:06:02;;;;;;;5.85;1.45;;;20.20;99.90;;;;;;5015838;28;20199;-80
2022/12/04 10:08:40;;;;;;;4.55;1.55;;;20.10;99.90;;;;;;5027041;28;20206;-76
2022/12/04 10:11:15;;;;;;;3.40;1.45;;;20.10;99.90;;;;;;5015985;28;20198;-76
2022/12/04 10:14:07;;;;;;;6.22;1.00;;;20.10;99.90;;;;;;5015861;28;20277;-78
2022/12/04 10:16:48;;;;;;;3.97;0.82;;;20.10;99.90;;;;;;5008866;28;20282;-77
2022/12/04 10:19:28;;;;;;;3.45;0.80;;;20.10;99.90;;;;;;5018029;28;20203;-76
2022/12/04 10:22:11;;;;;;;2.53;0.80;;;20.10;99.90;;;;;;5017281;28;20195;-78
2022/12/04 10:24:49;;;;;;;4.72;0.80;;;20.10;99.90;;;;;;5015575;28;20197;-77
2022/12/04 10:27:27;;;;;;;3.10;0.60;;;20.10;99.90;;;;;;5014508;28;20219;-76
2022/12/04 10:30:02;;;;;;;3.85;0.70;;;20.10;99.90;;;;;;5014958;28;20223;-77
2022/12/04 10:32:35;;;;;;;6.97;0.73;;;20.10;99.90;;;;;;5016054;28;20198;-77
2022/12/04 10:35:20;;;;;;;4.63;0.65;;;20.10;99.90;;;;;;5016526;28;20333;-78
2022/12/04 10:37:57;;;;;;;3.67;0.68;;;20.10;99.90;;;;;;5021869;28;20225;-77
2022/12/04 10:40:36;;;;;;;3.08;0.80;;;20.10;99.90;;;;;;5015969;28;20202;-76
2022/12/04 10:43:17;;;;;;;2.95;0.60;;;20.10;99.90;;;;;;5026042;28;20274;-77
2022/12/04 10:45:48;;;;;;;5.05;0.80;;;20.00;99.90;;;;;;5017097;28;20543;-76
2022/12/04 10:48:36;;;;;;;2.80;0.63;;;20.00;99.90;;;;;;5015763;28;20293;-77
2022/12/04 10:51:08;;;;;;;3.85;0.70;;;20.00;99.90;;;;;;5013500;28;20231;-76
2022/12/04 10:53:40;;;;;;;4.47;0.80;;;20.00;99.90;;;;;;5013995;28;20206;-77
2022/12/04 10:56:18;;;;;;;2.03;0.68;;;20.00;99.90;;;;;;5016256;28;20190;-77
2022/12/04 10:58:59;;;;;;;4.55;0.70;;;20.00;99.90;;;;;;5025112;28;20202;-77
2022/12/04 11:01:31;;;;;;;3.53;0.70;;;19.90;99.90;;;;;;5020708;28;20227;-77
2022/12/04 11:04:07;;;;;;;4.15;0.70;;;19.90;99.90;;;;;;5022262;28;20195;-77
2022/12/04 11:06:38;;;;;;;2.20;0.60;;;19.90;99.90;;;;;;5018201;28;20200;-77
2022/12/04 11:09:09;;;;;;;4.97;0.57;;;19.90;99.90;;;;;;5014889;28;20215;-76
2022/12/04 11:11:42;;;;;;;5.28;0.70;;;19.90;99.90;;;;;;5018925;28;20232;-77
2022/12/04 11:14:18;;;;;;;3.33;0.43;;;19.90;99.90;;;;;;5014783;28;20233;-77
2022/12/04 11:16:50;;;;;;;3.50;0.57;;;19.90;99.90;;;;;;5017483;28;20256;-77
2022/12/04 11:19:26;;;;;;;4.43;0.57;;;19.90;99.90;;;;;;5026004;28;20199;-77
2022/12/04 11:21:58;;;;;;;2.60;0.75;;;19.90;99.90;;;;;;5018507;28;20190;-76
2022/12/04 11:24:33;;;;;;;5.43;0.60;;;19.80;99.90;;;;;;5021105;28;20599;-77
2022/12/04 11:27:08;;;;;;;3.33;0.70;;;19.80;99.90;;;;;;5021605;28;20198;-77
2022/12/04 11:29:46;;;;;;;5.60;0.60;;;19.80;99.90;;;;;;5026990;28;20638;-76
2022/12/04 11:32:24;;;;;;;1.77;0.50;;;19.80;99.90;;;;;;5017164;28;20569;-76
2022/12/04 11:34:57;;;;;;;5.53;0.75;;;19.80;99.90;;;;;;5030464;28;20197;-77
2022/12/04 11:37:32;;;;;;;3.80;0.70;;;19.80;99.90;;;;;;5018371;28;20318;-79
2022/12/04 11:40:05;;;;;;;4.05;0.77;;;19.80;99.90;;;;;;5022572;28;20589;-78
2022/12/04 11:42:38;;;;;;;2.42;0.70;;;19.80;99.90;;;;;;5026398;28;20190;-77
2022/12/04 11:45:23;;;;;;;2.13;0.57;;;19.80;99.90;;;;;;5024213;28;20194;-78
2022/12/04 11:47:57;;;;;;;3.75;0.80;;;19.80;99.90;;;;;;5021327;28;20651;-77
2022/12/04 11:50:38;;;;;;;5.80;0.80;;;19.80;99.90;;;;;;5021678;28;21205;-77
2022/12/04 11:53:18;;;;;;;3.80;0.63;;;19.80;99.90;;;;;;5023791;28;20553;-77
2022/12/04 11:56:14;;;;;;;4.43;0.80;;;19.80;99.90;;;;;;5023573;28;20705;-78
2022/12/04 11:59:14;;;;;;;3.60;0.60;;;19.70;99.90;;;;;;5009763;28;20217;-79
2022/12/04 12:01:54;;;;;;;4.05;0.88;;;19.70;99.90;;;;;;5016786;28;20301;-77
2022/12/04 12:04:57;;;;;;;5.38;0.70;;;19.70;99.90;;;;;;5006655;28;20231;-77
2022/12/04 12:07:36;;;;;;;5.40;0.80;;;19.70;99.90;;;;;;5020822;28;20654;-78
2022/12/04 12:10:12;;;;;;;2.58;0.70;;;19.70;99.90;;;;;;5024986;28;20195;-77
2022/12/04 12:12:55;;;;;;;4.25;0.77;;;19.70;99.90;;;;;;5021581;28;20198;-77
2022/12/04 12:15:41;;;;;;;2.17;0.60;;;19.70;99.90;;;;;;5016337;28;20685;-77
2022/12/04 12:18:30;;;;;;;2.28;0.60;;;19.70;99.90;;;;;;5014669;28;20631;-77
2022/12/04 12:21:08;;;;;;;4.75;0.82;;;19.70;99.90;;;;;;5021995;28;20195;-78
2022/12/04 12:23:56;;;;;;;5.35;0.88;;;19.70;99.90;;;;;;5012659;28;20223;-77
2022/12/04 12:26:36;;;;;;;3.40;0.90;;;19.70;99.90;;;;;;5018851;28;20203;-77
2022/12/04 12:29:20;;;;;;;5.20;0.90;;;19.70;99.90;;;;;;5024432;28;20220;-78
2022/12/04 12:32:17;;;;;;;4.75;0.80;;;19.70;99.90;;;;;;5011258;28;20259;-78
2022/12/04 12:34:49;;;;;;;6.03;0.90;;;19.60;99.90;;;;;;5021397;28;20183;-78
2022/12/04 12:37:27;;;;;;;6.60;0.90;;;19.60;99.90;;;;;;5019193;28;20689;-78
2022/12/04 12:40:05;;;;;;;2.28;0.70;;;19.60;99.90;;;;;;5015407;28;20198;-78
2022/12/04 12:42:40;;;;;;;5.05;0.85;;;19.60;99.90;;;;;;5015533;28;20199;-78
2022/12/04 12:45:27;;;;;;;4.80;0.90;;;19.60;99.90;;;;;;5030203;28;20190;-78
2022/12/04 12:48:08;;;;;;;3.78;0.85;;;19.60;99.90;;;;;;5014891;28;20223;-78
2022/12/04 12:50:48;;;;;;;6.18;0.93;;;19.60;99.90;;;;;;5015628;28;20229;-79
2022/12/04 12:53:25;;;;;;;3.92;0.70;;;19.60;99.90;;;;;;5017563;28;20202;-79
2022/12/04 12:55:59;;;;;;;2.75;0.57;;;19.50;99.90;;;;;;5017816;28;20206;-79
2022/12/04 12:58:34;;;;;;;4.78;0.90;;;19.50;99.90;;;;;;5020804;28;20212;-78
2022/12/04 13:01:12;;;;;;;4.47;1.30;;;19.50;99.90;;;;;;5017530;28;20209;-80
2022/12/04 13:03:52;;;;;;;3.40;0.90;;;19.50;99.90;;;;;;5021014;28;20206;-78
2022/12/04 13:06:27;;;;;;;2.92;0.82;;;19.50;99.90;;;;;;5016804;28;20209;-79
2022/12/04 13:09:07;;;;;;;4.78;0.90;;;19.40;99.90;;;;;;5023026;28;20210;-79
2022/12/04 13:11:38;;;;;;;4.65;1.00;;;19.40;99.90;;;;;;5016262;28;20285;-77
2022/12/04 13:14:13;;;;;;;5.13;0.93;;;19.40;99.90;;;;;;5027683;28;20186;-77
2022/12/04 13:16:47;;;;;;;4.35;1.10;;;19.40;99.90;;;;;;5025676;28;20243;-77
2022/12/04 13:19:24;;;;;;;4.30;1.00;;;19.40;99.90;;;;;;5018244;28;20203;-80
2022/12/04 13:22:02;;;;;;;4.65;1.05;;;19.40;99.90;;;;;;5015532;28;20209;-81
2022/12/04 13:25:09;;;;;;;3.30;0.90;;;19.40;99.90;;;;;;5023377;28;20189;-79
2022/12/04 13:27:53;;;;;;;3.10;0.90;;;19.40;99.90;;;;;;5011968;28;20209;-79
2022/12/04 13:30:25;;;;;;;2.90;0.90;;;19.30;99.90;;;;;;5014134;28;20642;-77
2022/12/04 13:33:33;;;;;;;4.25;0.98;;;19.30;99.90;;;;;;5022088;28;20195;-78
2022/12/04 13:36:31;;;;;;;3.78;0.73;;;19.20;99.90;;;;;;5013191;28;20198;-79
2022/12/04 13:39:25;;;;;;;2.92;0.80;;;19.20;99.90;;;;;;5020608;28;20320;-78